createdAt,value
2023-08-09T00:02:08.030Z,25.62
2023-08-09T00:04:56.740Z,25.59
2023-08-09T00:07:45.591Z,25.65
2023-08-09T00:10:35.044Z,25.61
2023-08-09T00:13:23.885Z,25.68
2023-08-09T00:16:12.795Z,25.59
2023-08-09T00:19:03.394Z,25.56
2023-08-09T00:21:52.327Z,25.59
2023-08-09T00:24:41.241Z,25.62
2023-08-09T00:27:30.507Z,25.53
2023-08-09T00:30:19.266Z,25.58
2023-08-09T00:33:08.391Z,25.56
2023-08-09T00:35:59.025Z,25.56
2023-08-09T00:38:47.871Z,25.55
2023-08-09T00:41:36.762Z,25.60
2023-08-09T00:44:25.615Z,25.64
2023-08-09T00:47:14.306Z,25.55
2023-08-09T00:50:03.836Z,25.55
2023-08-09T00:52:53.976Z,25.57
2023-08-09T00:55:42.833Z,25.56
2023-08-09T00:58:31.646Z,25.62
2023-08-09T01:01:20.431Z,25.59
2023-08-09T01:04:09.370Z,25.59
2023-08-09T01:07:05.229Z,25.52
2023-08-09T01:10:02.520Z,25.55
2023-08-09T01:12:55.247Z,25.52
2023-08-09T01:15:45.352Z,25.56
2023-08-09T01:18:35.982Z,25.49
2023-08-09T01:21:29.399Z,25.55
2023-08-09T01:24:20.028Z,25.56
2023-08-09T01:27:10.062Z,25.57
2023-08-09T01:29:58.996Z,25.51
2023-08-09T01:32:48.011Z,25.49
2023-08-09T01:35:43.497Z,25.47
2023-08-09T01:38:37.950Z,25.52
2023-08-09T01:41:28.599Z,25.49
2023-08-09T01:44:18.371Z,25.48
2023-08-09T01:47:08.795Z,25.54
2023-08-09T01:49:57.705Z,25.49
2023-08-09T01:52:46.431Z,25.55
2023-08-09T01:55:35.439Z,25.53
2023-08-09T01:58:25.864Z,25.48
2023-08-09T02:01:14.682Z,25.50
2023-08-09T02:04:04.348Z,25.52
2023-08-09T02:06:53.271Z,25.52
2023-08-09T02:09:42.194Z,25.48
2023-08-09T02:12:31.036Z,25.45
2023-08-09T02:15:23.251Z,25.47
2023-08-09T02:18:12.072Z,25.47
2023-08-09T02:21:03.308Z,25.45
2023-08-09T02:23:52.108Z,25.50
2023-08-09T02:26:41.214Z,25.51
2023-08-09T02:29:31.042Z,25.51
2023-08-09T02:32:21.412Z,25.52
2023-08-09T02:35:11.225Z,25.47
2023-08-09T02:37:59.952Z,25.43
2023-08-09T02:40:50.306Z,25.45
2023-08-09T02:43:39.298Z,25.42
2023-08-09T02:46:28.035Z,25.42
2023-08-09T02:49:18.152Z,25.46
2023-08-09T02:52:07.397Z,25.44
2023-08-09T02:54:56.259Z,25.44
2023-08-09T02:57:45.063Z,25.46
2023-08-09T03:00:34.626Z,25.46
2023-08-09T03:03:24.026Z,25.48
2023-08-09T03:06:14.141Z,25.45
2023-08-09T03:09:03.629Z,25.48
2023-08-09T03:11:52.510Z,25.48
2023-08-09T03:14:41.417Z,25.47
2023-08-09T03:17:30.341Z,25.48
2023-08-09T03:20:19.339Z,25.52
2023-08-09T03:23:10.719Z,25.47
2023-08-09T03:25:59.577Z,25.47
2023-08-09T03:28:48.307Z,25.51
2023-08-09T03:31:37.162Z,25.51
2023-08-09T03:34:25.905Z,25.49
2023-08-09T03:37:14.807Z,25.45
2023-08-09T03:40:10.564Z,25.48
2023-08-09T03:42:59.333Z,25.47
2023-08-09T03:45:48.279Z,25.42
2023-08-09T03:48:37.081Z,25.39
2023-08-09T03:51:25.947Z,25.49
2023-08-09T03:54:14.631Z,25.46
2023-08-09T03:57:05.054Z,25.45
2023-08-09T03:59:54.266Z,25.44
2023-08-09T04:02:43.134Z,25.40
2023-08-09T04:05:31.929Z,25.41
2023-08-09T04:08:22.637Z,25.43
2023-08-09T04:11:11.456Z,25.45
2023-08-09T04:14:01.746Z,25.46
2023-08-09T04:16:50.602Z,25.46
2023-08-09T04:19:39.766Z,25.40
2023-08-09T04:22:29.316Z,25.45
2023-08-09T04:25:19.427Z,25.47
2023-08-09T04:28:11.092Z,25.43
2023-08-09T04:31:04.439Z,25.44
2023-08-09T04:33:53.340Z,25.45
2023-08-09T04:36:42.277Z,25.40
2023-08-09T04:39:30.966Z,25.43
2023-08-09T04:42:19.888Z,25.51
2023-08-09T04:45:10.897Z,25.46
2023-08-09T04:48:02.581Z,25.45
2023-08-09T04:50:53.380Z,25.50
2023-08-09T04:53:43.720Z,25.53
2023-08-09T04:56:32.554Z,25.54
2023-08-09T04:59:21.205Z,25.55
2023-08-09T05:02:09.928Z,25.50
2023-08-09T05:04:59.943Z,25.43
2023-08-09T05:07:48.856Z,25.45
2023-08-09T05:10:38.038Z,25.46
2023-08-09T05:13:27.457Z,25.46
2023-08-09T05:16:16.405Z,25.51
2023-08-09T05:19:05.710Z,25.43
2023-08-09T05:21:56.010Z,25.41
2023-08-09T05:24:44.710Z,25.46
2023-08-09T05:27:33.672Z,25.45
2023-08-09T05:30:23.352Z,25.40
2023-08-09T05:33:12.083Z,25.47
2023-08-09T05:36:01.320Z,25.42
2023-08-09T05:38:51.747Z,25.45
2023-08-09T05:41:40.705Z,25.40
2023-08-09T05:44:29.937Z,25.45
2023-08-09T05:47:18.952Z,25.43
2023-08-09T05:50:09.162Z,25.46
2023-08-09T05:52:57.871Z,25.48
2023-08-09T05:55:48.005Z,25.48
2023-08-09T05:58:36.709Z,25.43
2023-08-09T06:01:25.472Z,25.42
2023-08-09T06:04:14.536Z,25.45
2023-08-09T06:07:03.607Z,25.44
2023-08-09T06:09:52.693Z,25.47
2023-08-09T06:12:42.984Z,25.48
2023-08-09T06:15:31.952Z,25.41
2023-08-09T06:18:20.721Z,25.46
2023-08-09T06:21:09.627Z,25.48
2023-08-09T06:23:58.406Z,25.48
2023-08-09T06:26:47.158Z,25.45
2023-08-09T06:29:37.288Z,25.44
2023-08-09T06:32:26.006Z,25.43
2023-08-09T06:35:15.385Z,25.43
2023-08-09T06:38:14.664Z,25.46
2023-08-09T06:41:04.349Z,25.46
2023-08-09T06:43:53.078Z,25.42
2023-08-09T06:46:44.290Z,25.43
2023-08-09T06:49:33.842Z,25.42
2023-08-09T06:52:22.911Z,25.41
2023-08-09T06:55:12.485Z,25.46
2023-08-09T06:58:01.154Z,25.46
2023-08-09T07:00:50.467Z,25.50
2023-08-09T07:03:40.662Z,25.41
2023-08-09T07:06:29.329Z,25.42
2023-08-09T07:09:19.478Z,25.47
2023-08-09T07:12:08.718Z,25.43
2023-08-09T07:14:57.462Z,25.49
2023-08-09T07:17:47.522Z,25.47
2023-08-09T07:20:40.067Z,25.46
2023-08-09T07:23:41.256Z,25.48
2023-08-09T07:26:41.769Z,25.48
2023-08-09T07:29:30.735Z,25.44
2023-08-09T07:32:19.489Z,25.42
2023-08-09T07:35:09.867Z,25.43
2023-08-09T07:37:59.968Z,25.45
2023-08-09T07:40:48.822Z,25.44
2023-08-09T07:43:37.441Z,25.47
2023-08-09T07:46:26.185Z,25.41
2023-08-09T07:49:14.859Z,25.43
2023-08-09T07:52:03.935Z,25.42
2023-08-09T07:54:54.249Z,25.44
2023-08-09T07:57:43.038Z,25.47
2023-08-09T08:00:35.249Z,25.45
2023-08-09T08:03:27.873Z,25.46
2023-08-09T08:06:18.867Z,25.42
2023-08-09T08:09:13.681Z,25.47
2023-08-09T08:12:13.440Z,25.45
2023-08-09T08:15:11.036Z,25.48
2023-08-09T08:17:59.834Z,25.47
2023-08-09T08:20:48.515Z,25.46
2023-08-09T08:23:38.038Z,25.56
2023-08-09T08:26:26.851Z,25.62
2023-08-09T08:29:17.141Z,25.58
2023-08-09T08:32:09.432Z,25.59
2023-08-09T08:34:58.304Z,25.61
2023-08-09T08:37:48.859Z,25.59
2023-08-09T08:40:41.123Z,25.61
2023-08-09T08:43:30.090Z,25.61
2023-08-09T08:46:22.949Z,25.63
2023-08-09T08:49:16.053Z,25.63
2023-08-09T08:52:08.841Z,25.67
2023-08-09T08:54:58.438Z,25.63
2023-08-09T08:57:48.455Z,25.65
2023-08-09T09:00:37.478Z,25.63
2023-08-09T09:03:27.652Z,25.65
2023-08-09T09:06:16.471Z,25.66
2023-08-09T09:09:12.448Z,25.68
2023-08-09T09:12:04.296Z,25.66
2023-08-09T09:14:54.034Z,25.67
2023-08-09T09:17:43.961Z,25.71
2023-08-09T09:20:35.065Z,25.73
2023-08-09T09:23:28.902Z,25.72
2023-08-09T09:26:19.219Z,25.73
2023-08-09T09:29:10.479Z,25.73
2023-08-09T09:32:02.183Z,25.68
2023-08-09T09:34:53.384Z,25.66
2023-08-09T09:37:43.694Z,25.61
2023-08-09T09:40:36.712Z,25.54
2023-08-09T09:43:26.057Z,25.64
2023-08-09T09:46:35.700Z,25.57
2023-08-09T09:49:26.111Z,25.50
2023-08-09T09:52:15.912Z,25.61
2023-08-09T09:55:08.445Z,25.69
2023-08-09T09:57:58.138Z,25.75
2023-08-09T10:00:50.181Z,25.86
2023-08-09T10:03:51.823Z,26.14
2023-08-09T10:06:44.308Z,26.12
2023-08-09T10:09:34.869Z,26.32
2023-08-09T10:12:27.738Z,26.40
2023-08-09T10:15:19.577Z,26.32
2023-08-09T10:18:14.641Z,26.36
2023-08-09T10:21:06.804Z,26.36
2023-08-09T10:24:07.395Z,26.39
2023-08-09T10:26:58.277Z,26.35
2023-08-09T10:29:59.827Z,26.25
2023-08-09T10:32:53.245Z,26.24
2023-08-09T10:35:50.946Z,26.14
2023-08-09T10:38:47.308Z,26.04
2023-08-09T10:41:38.050Z,25.96
2023-08-09T10:44:42.059Z,26.05
2023-08-09T10:47:33.694Z,26.07
2023-08-09T10:50:23.225Z,26.03
2023-08-09T10:53:12.783Z,26.10
2023-08-09T10:56:05.038Z,26.07
2023-08-09T10:58:54.940Z,25.98
2023-08-09T11:01:44.813Z,26.10
2023-08-09T11:04:35.240Z,26.09
2023-08-09T11:07:23.960Z,26.05
2023-08-09T11:10:14.319Z,26.04
2023-08-09T11:13:08.590Z,26.13
2023-08-09T11:15:57.311Z,26.08
2023-08-09T11:18:45.968Z,26.15
2023-08-09T11:21:42.674Z,26.13
2023-08-09T11:24:31.625Z,26.14
2023-08-09T11:27:20.598Z,26.10
2023-08-09T11:30:10.802Z,26.18
2023-08-09T11:33:01.128Z,26.15
2023-08-09T11:35:50.436Z,26.16
2023-08-09T11:38:42.588Z,26.17
2023-08-09T11:41:42.774Z,26.17
2023-08-09T11:44:33.612Z,26.21
2023-08-09T11:47:22.391Z,26.16
2023-08-09T11:50:13.810Z,26.19
2023-08-09T11:53:02.492Z,26.20
2023-08-09T11:55:52.600Z,26.29
2023-08-09T11:58:44.920Z,26.25
2023-08-09T12:01:38.553Z,26.27
2023-08-09T12:04:30.496Z,26.23
2023-08-09T12:07:19.721Z,26.30
2023-08-09T12:10:12.723Z,26.26
2023-08-09T12:13:03.617Z,26.30
2023-08-09T12:15:52.417Z,26.25
2023-08-09T12:18:41.223Z,26.25
2023-08-09T12:21:29.895Z,26.24
2023-08-09T12:24:18.713Z,26.31
2023-08-09T12:27:07.506Z,26.34
2023-08-09T12:29:58.210Z,26.32
2023-08-09T12:32:47.081Z,26.32
2023-08-09T12:35:35.777Z,26.35
2023-08-09T12:38:25.242Z,26.35
2023-08-09T12:41:15.354Z,26.34
2023-08-09T12:44:04.068Z,26.37
2023-08-09T12:46:55.164Z,26.36
2023-08-09T12:49:44.036Z,26.41
2023-08-09T12:52:32.858Z,26.40
2023-08-09T12:55:21.611Z,26.36
2023-08-09T12:58:10.885Z,26.29
2023-08-09T13:01:00.924Z,26.31
2023-08-09T13:03:51.429Z,26.25
2023-08-09T13:06:40.126Z,26.27
2023-08-09T13:09:29.832Z,26.36
2023-08-09T13:12:18.586Z,26.39
2023-08-09T13:15:09.282Z,26.34
2023-08-09T13:17:57.971Z,26.47
2023-08-09T13:20:48.553Z,26.39
2023-08-09T13:23:37.194Z,26.44
2023-08-09T13:26:27.184Z,26.46
2023-08-09T13:29:16.051Z,26.47
2023-08-09T13:32:04.847Z,26.40
2023-08-09T13:34:54.205Z,26.38
2023-08-09T13:37:44.357Z,26.41
2023-08-09T13:40:33.384Z,26.38
2023-08-09T13:43:22.106Z,26.37
2023-08-09T13:46:11.074Z,26.33
2023-08-09T13:49:02.184Z,26.23
2023-08-09T13:51:51.438Z,26.31
2023-08-09T13:54:41.765Z,26.24
2023-08-09T13:57:30.453Z,26.30
2023-08-09T14:00:19.587Z,26.30
2023-08-09T14:03:10.048Z,26.26
2023-08-09T14:05:59.027Z,26.30
2023-08-09T14:08:47.737Z,26.19
2023-08-09T14:11:37.930Z,26.26
2023-08-09T14:14:27.300Z,26.27
2023-08-09T14:17:16.057Z,26.21
2023-08-09T14:20:06.976Z,26.22
2023-08-09T14:22:55.713Z,26.28
2023-08-09T14:25:44.450Z,26.28
2023-08-09T14:28:34.770Z,26.35
2023-08-09T14:31:23.625Z,26.26
2023-08-09T14:34:12.448Z,26.22
2023-08-09T14:37:02.737Z,26.31
2023-08-09T14:39:51.452Z,26.34
2023-08-09T14:42:42.255Z,26.23
2023-08-09T14:45:33.912Z,26.29
2023-08-09T14:48:22.674Z,26.31
2023-08-09T14:51:11.459Z,26.34
2023-08-09T14:54:00.211Z,26.34
2023-08-09T14:56:49.226Z,26.32
2023-08-09T14:59:37.831Z,26.38
2023-08-09T15:02:27.949Z,26.57
2023-08-09T15:05:16.752Z,26.55
2023-08-09T15:08:07.535Z,26.43
2023-08-09T15:10:59.047Z,26.61
2023-08-09T15:13:47.781Z,26.60
2023-08-09T15:16:36.475Z,26.62
2023-08-09T15:19:26.868Z,26.59
2023-08-09T15:22:15.546Z,26.55
2023-08-09T15:25:18.901Z,26.62
2023-08-09T15:28:08.465Z,26.55
2023-08-09T15:30:58.102Z,26.56
2023-08-09T15:33:46.966Z,26.51
2023-08-09T15:36:37.034Z,26.45
2023-08-09T15:39:26.117Z,26.44
2023-08-09T15:42:18.277Z,26.46
2023-08-09T15:45:08.612Z,26.48
2023-08-09T15:47:57.435Z,26.63
2023-08-09T15:50:46.194Z,26.70
2023-08-09T15:53:36.465Z,26.84
2023-08-09T15:56:25.420Z,26.79
2023-08-09T15:59:15.241Z,26.76
2023-08-09T16:02:04.603Z,26.73
2023-08-09T16:04:53.329Z,26.69
2023-08-09T16:07:42.279Z,26.69
2023-08-09T16:10:32.568Z,26.74
2023-08-09T16:13:21.723Z,26.76
2023-08-09T16:16:20.324Z,26.73
2023-08-09T16:19:13.173Z,26.80
2023-08-09T16:22:01.925Z,26.64
2023-08-09T16:24:50.663Z,26.78
2023-08-09T16:27:41.246Z,26.75
2023-08-09T16:30:30.125Z,26.80
2023-08-09T16:33:18.744Z,26.83
2023-08-09T16:36:08.038Z,26.82
2023-08-09T16:38:56.750Z,26.74
2023-08-09T16:41:45.531Z,26.73
2023-08-09T16:44:35.723Z,26.64
2023-08-09T16:47:24.459Z,26.76
2023-08-09T16:50:13.422Z,26.71
2023-08-09T16:53:02.099Z,26.82
2023-08-09T16:55:50.758Z,26.74
2023-08-09T16:58:39.655Z,26.74
2023-08-09T17:01:29.775Z,26.80
2023-08-09T17:04:18.508Z,26.76
2023-08-09T17:07:07.974Z,26.67
2023-08-09T17:09:56.697Z,26.66
2023-08-09T17:12:45.387Z,26.68
2023-08-09T17:15:34.387Z,26.60
2023-08-09T17:18:24.491Z,26.53
2023-08-09T17:21:13.200Z,26.43
2023-08-09T17:24:02.113Z,26.41
2023-08-09T17:26:51.148Z,26.35
2023-08-09T17:29:39.860Z,26.21
2023-08-09T17:32:28.629Z,26.21
2023-08-09T17:35:18.976Z,26.24
2023-08-09T17:38:07.722Z,26.27
2023-08-09T17:40:57.299Z,26.28
2023-08-09T17:43:45.923Z,26.26
2023-08-09T17:46:34.737Z,26.32
2023-08-09T17:49:23.480Z,26.69
2023-08-09T17:52:13.545Z,26.86
2023-08-09T17:55:02.269Z,27.01
2023-08-09T17:57:51.895Z,27.14
2023-08-09T18:00:41.882Z,27.18
2023-08-09T18:03:30.568Z,27.06
2023-08-09T18:06:20.529Z,26.96
2023-08-09T18:09:11.638Z,26.93
2023-08-09T18:12:01.593Z,27.06
2023-08-09T18:14:50.261Z,27.06
2023-08-09T18:17:41.345Z,26.96
2023-08-09T18:20:29.991Z,26.78
2023-08-09T18:23:18.869Z,26.85
2023-08-09T18:26:08.861Z,26.79
2023-08-09T18:28:57.551Z,26.79
2023-08-09T18:31:46.288Z,26.82
2023-08-09T18:34:35.057Z,26.67
2023-08-09T18:37:23.769Z,26.68
2023-08-09T18:40:13.707Z,26.60
2023-08-09T18:43:04.370Z,26.64
2023-08-09T18:45:53.014Z,26.92
2023-08-09T18:48:41.692Z,26.98
2023-08-09T18:51:30.348Z,27.06
2023-08-09T18:54:19.168Z,27.03
2023-08-09T18:57:07.969Z,27.04
2023-08-09T18:59:58.160Z,27.03
2023-08-09T19:02:48.159Z,27.04
2023-08-09T19:05:37.108Z,26.97
2023-08-09T19:08:25.798Z,27.00
2023-08-09T19:11:14.505Z,27.03
2023-08-09T19:14:04.392Z,26.99
2023-08-09T19:16:54.393Z,27.04
2023-08-09T19:19:43.179Z,27.00
2023-08-09T19:22:31.848Z,27.01
2023-08-09T19:25:21.124Z,26.99
2023-08-09T19:28:10.045Z,27.02
2023-08-09T19:31:00.682Z,26.97
2023-08-09T19:33:50.727Z,26.98
2023-08-09T19:36:39.509Z,27.04
2023-08-09T19:39:30.617Z,27.00
2023-08-09T19:42:19.555Z,27.03
2023-08-09T19:45:09.817Z,27.03
2023-08-09T19:48:00.416Z,27.03
2023-08-09T19:50:50.850Z,26.97
2023-08-09T19:53:39.792Z,26.94
2023-08-09T19:56:28.604Z,26.90
2023-08-09T19:59:17.255Z,26.91
2023-08-09T20:02:07.161Z,26.89
2023-08-09T20:04:55.915Z,26.91
2023-08-09T20:07:46.643Z,26.86
2023-08-09T20:10:37.917Z,26.88
2023-08-09T20:13:26.708Z,26.87
2023-08-09T20:16:15.411Z,26.79
2023-08-09T20:19:04.235Z,26.80
2023-08-09T20:21:52.935Z,26.80
2023-08-09T20:24:44.884Z,26.83
2023-08-09T20:27:33.624Z,26.85
2023-08-09T20:30:22.325Z,26.83
2023-08-09T20:33:11.323Z,26.81
2023-08-09T20:35:59.973Z,26.81
2023-08-09T20:38:48.897Z,26.84
2023-08-09T20:41:38.950Z,26.83
2023-08-09T20:44:27.640Z,26.85
2023-08-09T20:47:16.321Z,26.76
2023-08-09T20:50:06.106Z,26.77
2023-08-09T20:52:54.945Z,26.82
2023-08-09T20:55:44.280Z,26.75
2023-08-09T20:58:34.400Z,26.82
2023-08-09T21:01:24.141Z,26.78
2023-08-09T21:04:12.846Z,26.80
2023-08-09T21:07:01.488Z,26.83
2023-08-09T21:09:50.223Z,26.81
2023-08-09T21:12:41.524Z,26.80
2023-08-09T21:15:31.816Z,26.78
2023-08-09T21:18:20.452Z,26.79
2023-08-09T21:21:13.744Z,26.77
2023-08-09T21:32:34.556Z,26.74
2023-08-09T21:35:23.493Z,26.74
2023-08-09T21:38:15.726Z,26.72
2023-08-09T21:41:04.477Z,26.69
2023-08-09T21:43:53.340Z,26.62
2023-08-09T21:46:42.086Z,26.52
2023-08-09T21:49:33.304Z,26.44
2023-08-09T21:52:22.143Z,26.36
2023-08-09T21:55:11.215Z,26.28
2023-08-09T21:57:59.911Z,26.21
2023-08-09T22:00:48.582Z,26.17
2023-08-09T22:03:37.521Z,26.12
2023-08-09T22:06:27.767Z,26.05
2023-08-09T22:09:16.508Z,26.03
2023-08-09T22:12:05.931Z,25.96
2023-08-09T22:14:54.841Z,25.94
2023-08-09T22:17:43.655Z,25.92
2023-08-09T22:20:32.459Z,25.96
2023-08-09T22:23:22.579Z,25.91
2023-08-09T22:26:11.330Z,25.80
2023-08-09T22:29:00.043Z,25.79
2023-08-09T22:31:48.845Z,25.77
2023-08-09T22:34:37.615Z,25.74
2023-08-09T22:37:26.495Z,25.72
2023-08-09T22:40:16.605Z,25.69
2023-08-09T22:43:05.609Z,25.70
2023-08-09T22:45:54.417Z,25.68
2023-08-09T22:48:43.338Z,25.66
2023-08-09T22:51:32.058Z,25.63
2023-08-09T22:54:20.792Z,25.56
2023-08-09T22:57:12.694Z,25.54
2023-08-09T23:00:01.586Z,25.62
2023-08-09T23:02:50.427Z,25.63
2023-08-09T23:05:39.456Z,25.55
2023-08-09T23:08:28.991Z,25.48
2023-08-09T23:11:18.264Z,25.49
2023-08-09T23:14:08.561Z,25.50
2023-08-09T23:16:57.671Z,25.46
2023-08-09T23:19:46.392Z,25.46
2023-08-09T23:22:35.199Z,25.39
2023-08-09T23:25:24.196Z,25.37
2023-08-09T23:28:12.876Z,25.29
2023-08-09T23:31:03.016Z,25.29
2023-08-09T23:33:51.680Z,25.23
2023-08-09T23:36:40.501Z,25.22
2023-08-09T23:39:29.209Z,25.14
2023-08-09T23:42:17.906Z,25.08
2023-08-09T23:45:07.641Z,25.11
2023-08-09T23:47:58.289Z,25.09
2023-08-09T23:50:47.073Z,25.08
2023-08-09T23:53:36.086Z,25.08
2023-08-09T23:56:24.911Z,25.11
2023-08-09T23:59:13.756Z,25.12
